Time;durP1;ratioP1;P1;durP2;ratioP2;P2;SDS_P1;SDS_P2;PMS_P1;PMS_P2;Temp;Humidity;BMP_temperature;BMP_pressure;BME280_temperature;BME280_humidity;BME280_pressure;Samples;Min_cycle;Max_cycle;Signal;HPM_P1;HPM_P2
2022/02/21 00:00:09;;;;;;;45.00;30.75;;;5.10;99.90;;;;;;5096931;28;20255;-85
2022/02/21 00:02:35;;;;;;;61.50;33.20;;;5.10;99.90;;;;;;5095300;28;20226;-90
2022/02/21 00:05:01;;;;;;;45.27;24.70;;;5.00;99.90;;;;;;5096676;28;20255;-85
2022/02/21 00:07:27;;;;;;;50.40;32.00;;;5.00;99.90;;;;;;5096118;28;20547;-86
2022/02/21 00:09:52;;;;;;;45.03;28.70;;;4.90;99.90;;;;;;5096390;28;20411;-87
2022/02/21 00:12:18;;;;;;;42.37;24.70;;;4.90;99.90;;;;;;5096507;28;20196;-86
2022/02/21 00:14:43;;;;;;;43.47;25.17;;;4.80;99.90;;;;;;5096833;28;20278;-89
2022/02/21 00:17:09;;;;;;;47.97;29.43;;;4.80;99.90;;;;;;5083444;28;20200;-87
2022/02/21 00:19:35;;;;;;;51.90;30.90;;;4.80;99.90;;;;;;5091989;28;20266;-90
2022/02/21 00:22:01;;;;;;;40.90;26.60;;;4.70;99.90;;;;;;5076829;28;20180;-86
2022/02/21 00:24:26;;;;;;;46.53;27.93;;;4.70;99.90;;;;;;5077866;28;20646;-90
2022/02/21 00:26:52;;;;;;;40.37;26.10;;;4.60;99.90;;;;;;5078670;28;20629;-88
2022/02/21 00:29:18;;;;;;;34.57;19.83;;;4.50;99.90;;;;;;5080965;28;20176;-90
2022/02/21 00:31:43;;;;;;;47.00;25.30;;;4.50;99.90;;;;;;5095502;28;20812;-90
2022/02/21 00:34:09;;;;;;;51.43;28.33;;;4.40;99.90;;;;;;5097556;28;20638;-86
2022/02/21 00:36:35;;;;;;;41.43;28.33;;;4.30;99.90;;;;;;5097391;28;20173;-90
2022/02/21 00:39:01;;;;;;;28.50;16.67;;;4.30;99.90;;;;;;5081465;28;20224;-89
2022/02/21 00:41:26;;;;;;;45.63;26.13;;;4.30;99.90;;;;;;5077630;28;20173;-86
2022/02/21 00:43:52;;;;;;;48.90;28.20;;;4.20;99.90;;;;;;5095361;28;20414;-90
2022/02/21 00:46:17;;;;;;;54.23;31.10;;;4.20;99.90;;;;;;5077292;28;20176;-90
2022/02/21 00:48:43;;;;;;;54.63;32.10;;;4.20;99.90;;;;;;5077527;28;20309;-90
2022/02/21 00:51:10;;;;;;;57.17;34.93;;;4.20;99.90;;;;;;5077180;28;20560;-91
2022/02/21 00:53:35;;;;;;;53.28;29.10;;;4.20;99.90;;;;;;5095356;28;20271;-87
2022/02/21 00:56:02;;;;;;;49.17;31.17;;;4.20;99.90;;;;;;5077541;28;20204;-90
2022/02/21 00:58:27;;;;;;;50.28;30.23;;;4.20;99.90;;;;;;5095708;28;20216;-86
2022/02/21 01:00:53;;;;;;;59.07;35.77;;;4.20;99.90;;;;;;5077554;28;20173;-90
2022/02/21 01:03:19;;;;;;;58.23;33.67;;;4.20;99.90;;;;;;5095263;28;20204;-90
2022/02/21 01:05:44;;;;;;;39.13;22.27;;;4.20;99.90;;;;;;5077678;28;20169;-90
2022/02/21 01:08:10;;;;;;;47.80;30.10;;;4.20;99.90;;;;;;5077923;28;20254;-89
2022/02/21 01:10:38;;;;;;;51.13;30.93;;;4.20;99.90;;;;;;5078050;28;20187;-86
2022/02/21 01:13:04;;;;;;;48.45;27.80;;;4.20;99.90;;;;;;5080039;28;20252;-89
2022/02/21 01:15:30;;;;;;;48.25;28.92;;;4.10;99.90;;;;;;5100578;28;20156;-87
2022/02/21 01:17:56;;;;;;;47.60;26.92;;;4.10;99.90;;;;;;5100275;28;20208;-90
2022/02/21 01:20:22;;;;;;;45.90;30.27;;;4.10;99.90;;;;;;5092940;28;20192;-89
2022/02/21 01:22:48;;;;;;;48.13;23.80;;;4.10;99.90;;;;;;5094370;28;20204;-87
2022/02/21 01:25:14;;;;;;;49.43;28.53;;;4.10;99.90;;;;;;5093180;28;20230;-90
2022/02/21 01:27:40;;;;;;;45.35;26.98;;;4.00;99.90;;;;;;5093276;28;20204;-87
2022/02/21 01:30:07;;;;;;;45.97;27.20;;;4.00;99.90;;;;;;5093274;28;20177;-85
2022/02/21 01:32:34;;;;;;;49.10;29.33;;;4.00;99.90;;;;;;5094222;28;20414;-90
2022/02/21 01:35:00;;;;;;;51.50;26.75;;;4.00;99.90;;;;;;5093014;28;20186;-86
2022/02/21 01:37:26;;;;;;;53.53;27.17;;;3.90;99.90;;;;;;5093002;28;20196;-90
2022/02/21 01:39:52;;;;;;;42.70;28.37;;;3.90;99.90;;;;;;5094488;28;20417;-85
2022/02/21 01:42:18;;;;;;;44.50;29.13;;;3.90;99.90;;;;;;5093950;28;20196;-86
2022/02/21 01:44:48;;;;;;;46.60;24.85;;;3.90;99.90;;;;;;5102368;28;20172;-86
2022/02/21 01:47:17;;;;;;;43.47;25.23;;;3.90;99.90;;;;;;5093543;28;20564;-90
2022/02/21 01:49:43;;;;;;;50.95;28.35;;;3.90;99.90;;;;;;5096041;28;20642;-86
2022/02/21 01:52:11;;;;;;;35.17;21.95;;;3.80;99.90;;;;;;5095481;28;20188;-89
2022/02/21 01:54:37;;;;;;;49.03;30.25;;;3.80;99.90;;;;;;5095411;28;20206;-89
2022/02/21 01:57:04;;;;;;;49.43;31.10;;;3.70;99.90;;;;;;5099845;28;20265;-89
2022/02/21 01:59:32;;;;;;;50.35;30.85;;;3.70;99.90;;;;;;5095316;28;20870;-86
2022/02/21 02:01:58;;;;;;;49.13;28.02;;;3.70;99.90;;;;;;5103262;28;20160;-90
2022/02/21 02:04:25;;;;;;;53.83;33.63;;;3.70;99.90;;;;;;5093795;28;20203;-86
2022/02/21 02:06:52;;;;;;;54.67;32.42;;;3.70;99.90;;;;;;5092398;28;20396;-86
2022/02/21 02:09:18;;;;;;;56.42;33.53;;;3.70;99.90;;;;;;5092750;28;20661;-87
2022/02/21 02:11:44;;;;;;;58.55;34.88;;;3.70;99.90;;;;;;5094179;28;20183;-90
2022/02/21 02:14:30;;;;;;;51.17;33.47;;;3.60;99.90;;;;;;5093832;28;20319;-90
2022/02/21 02:17:00;;;;;;;24.23;13.35;;;3.60;99.90;;;;;;5076453;28;20212;-87
2022/02/21 02:19:25;;;;;;;44.22;24.55;;;3.60;99.90;;;;;;5075513;28;20263;-86
2022/02/21 02:21:55;;;;;;;47.93;28.80;;;3.50;99.90;;;;;;5093753;28;20196;-86
2022/02/21 02:24:22;;;;;;;62.22;35.33;;;3.50;99.90;;;;;;5075614;28;20218;-87
2022/02/21 02:26:52;;;;;;;49.17;28.40;;;3.50;99.90;;;;;;5096048;28;20176;-90
2022/02/21 02:29:18;;;;;;;63.47;37.75;;;3.50;99.90;;;;;;5080662;28;20173;-90
2022/02/21 02:31:44;;;;;;;58.63;34.90;;;3.50;99.90;;;;;;5097732;28;20241;-86
2022/02/21 02:34:10;;;;;;;60.37;34.63;;;3.50;99.90;;;;;;5097786;28;20955;-88
2022/02/21 02:36:35;;;;;;;62.23;35.93;;;3.50;99.90;;;;;;5079959;28;20173;-86
2022/02/21 02:39:01;;;;;;;59.80;36.47;;;3.50;99.90;;;;;;5083970;28;20223;-90
2022/02/21 02:41:27;;;;;;;43.53;22.07;;;3.50;99.90;;;;;;5098817;28;20683;-86
2022/02/21 02:43:52;;;;;;;56.23;32.60;;;3.50;99.90;;;;;;5080198;28;20204;-88
2022/02/21 02:46:18;;;;;;;61.17;37.17;;;3.50;99.90;;;;;;5098238;28;20177;-91
2022/02/21 02:48:44;;;;;;;55.10;33.87;;;3.50;99.90;;;;;;5080234;28;20204;-90
2022/02/21 02:51:09;;;;;;;50.93;28.63;;;3.50;99.90;;;;;;5080308;28;20255;-87
2022/02/21 02:53:35;;;;;;;58.70;34.80;;;3.50;99.90;;;;;;5098170;28;20207;-89
2022/02/21 02:56:01;;;;;;;44.43;24.07;;;3.60;99.90;;;;;;5080283;28;20172;-89
2022/02/21 02:58:26;;;;;;;50.20;26.50;;;3.60;99.90;;;;;;5080427;28;20212;-90
2022/02/21 03:00:52;;;;;;;58.47;31.10;;;3.60;99.90;;;;;;5098174;28;20655;-85
2022/02/21 03:03:18;;;;;;;61.27;36.00;;;3.60;99.90;;;;;;5100110;28;20681;-90
2022/02/21 03:05:44;;;;;;;62.47;35.20;;;3.60;99.90;;;;;;5091403;28;20176;-89
2022/02/21 03:08:09;;;;;;;58.40;32.40;;;3.60;99.90;;;;;;5079330;28;20445;-86
2022/02/21 03:10:35;;;;;;;66.70;33.53;;;3.60;99.90;;;;;;5097353;28;20294;-88
2022/02/21 03:13:01;;;;;;;73.87;41.00;;;3.60;99.90;;;;;;5080305;28;20236;-90
2022/02/21 03:15:27;;;;;;;53.67;31.57;;;3.50;99.90;;;;;;5096000;28;20447;-87
2022/02/21 03:17:53;;;;;;;66.33;38.33;;;3.50;99.90;;;;;;5095934;28;20223;-89
2022/02/21 03:20:18;;;;;;;71.15;40.08;;;3.50;99.90;;;;;;5095891;28;20195;-85
2022/02/21 03:22:44;;;;;;;62.53;34.93;;;3.50;99.90;;;;;;5097107;28;20192;-87
2022/02/21 03:25:13;;;;;;;68.93;37.63;;;3.50;99.90;;;;;;5095846;28;20179;-90
2022/02/21 03:27:43;;;;;;;66.10;34.22;;;3.40;99.90;;;;;;5095495;28;20223;-90
2022/02/21 03:30:10;;;;;;;67.80;37.30;;;3.40;99.90;;;;;;5095738;28;20188;-89
2022/02/21 03:32:36;;;;;;;58.85;33.13;;;3.40;99.90;;;;;;5096902;28;20211;-86
2022/02/21 03:35:02;;;;;;;56.78;33.35;;;3.50;99.90;;;;;;5097767;28;20196;-86
2022/02/21 03:37:28;;;;;;;67.93;36.20;;;3.50;99.90;;;;;;5095565;28;20565;-90
2022/02/21 03:39:53;;;;;;;65.57;35.63;;;3.50;99.90;;;;;;5097012;28;20188;-91
2022/02/21 03:42:19;;;;;;;66.10;38.83;;;3.50;99.90;;;;;;5096131;28;20204;-86
2022/02/21 03:44:45;;;;;;;70.70;36.80;;;3.50;99.90;;;;;;5100157;28;20645;-86
2022/02/21 03:47:10;;;;;;;74.77;38.83;;;3.50;99.90;;;;;;5096039;28;20593;-87
2022/02/21 03:49:36;;;;;;;85.70;42.73;;;3.50;99.90;;;;;;5099481;28;20203;-86
2022/02/21 03:52:02;;;;;;;67.57;35.83;;;3.50;99.90;;;;;;5096570;28;20657;-90
2022/02/21 03:54:28;;;;;;;73.03;41.53;;;3.60;99.90;;;;;;5097846;28;20676;-89
2022/02/21 03:56:53;;;;;;;74.03;41.33;;;3.60;99.90;;;;;;5097668;28;20242;-90
2022/02/21 03:59:19;;;;;;;67.80;38.80;;;3.60;99.90;;;;;;5095981;28;20204;-86
2022/02/21 04:01:45;;;;;;;67.10;38.00;;;3.60;99.90;;;;;;5096998;28;20184;-86
2022/02/21 04:04:10;;;;;;;65.23;37.93;;;3.60;99.90;;;;;;5096690;28;20575;-87
2022/02/21 04:06:36;;;;;;;72.30;39.60;;;3.60;99.90;;;;;;5096037;28;20176;-90
2022/02/21 04:09:02;;;;;;;70.50;39.83;;;3.60;99.90;;;;;;5095874;28;20207;-87
2022/02/21 04:11:28;;;;;;;67.05;37.75;;;3.60;99.90;;;;;;5097004;28;20815;-86
2022/02/21 04:13:54;;;;;;;71.43;37.03;;;3.60;99.90;;;;;;5096924;28;20284;-90
2022/02/21 04:16:19;;;;;;;72.80;39.50;;;3.60;99.90;;;;;;5110643;28;20571;-89
2022/02/21 04:18:45;;;;;;;64.57;39.30;;;3.60;99.90;;;;;;5095732;28;20247;-87
2022/02/21 04:21:11;;;;;;;66.57;39.73;;;3.60;99.90;;;;;;5077292;28;20188;-89
2022/02/21 04:23:37;;;;;;;67.27;36.57;;;3.60;99.90;;;;;;5095294;28;20412;-89
2022/02/21 04:26:02;;;;;;;70.50;41.90;;;3.60;99.90;;;;;;5079148;28;20181;-87
2022/02/21 04:28:28;;;;;;;68.43;38.37;;;3.60;99.90;;;;;;5106724;28;20192;-91
2022/02/21 04:30:54;;;;;;;63.27;34.50;;;3.60;99.90;;;;;;5104433;28;20169;-86
2022/02/21 04:33:20;;;;;;;71.00;38.53;;;3.60;99.90;;;;;;5077504;28;21033;-86
2022/02/21 04:35:45;;;;;;;54.07;27.50;;;3.60;99.90;;;;;;5095594;28;20189;-86
2022/02/21 04:38:12;;;;;;;59.83;33.37;;;3.60;99.90;;;;;;5077357;28;20277;-86
2022/02/21 04:40:38;;;;;;;74.45;39.85;;;3.60;99.90;;;;;;5077295;28;20178;-88
2022/02/21 04:43:04;;;;;;;62.23;36.00;;;3.60;99.90;;;;;;5079398;28;20279;-86
2022/02/21 04:45:30;;;;;;;60.93;32.50;;;3.60;99.90;;;;;;5081103;28;20456;-89
2022/02/21 04:47:56;;;;;;;56.30;29.93;;;3.60;99.90;;;;;;5083258;28;20196;-86
2022/02/21 04:50:22;;;;;;;73.93;39.72;;;3.60;99.90;;;;;;5102808;28;20379;-88
2022/02/21 04:52:47;;;;;;;69.18;34.65;;;3.60;99.90;;;;;;5099213;28;20200;-88
2022/02/21 04:55:14;;;;;;;60.97;34.73;;;3.60;99.90;;;;;;5096316;28;20626;-89
2022/02/21 04:57:40;;;;;;;64.13;36.15;;;3.60;99.90;;;;;;5077231;28;20239;-86
2022/02/21 05:00:09;;;;;;;81.43;43.08;;;3.60;99.90;;;;;;5080350;28;20181;-89
2022/02/21 05:02:34;;;;;;;88.47;44.67;;;3.70;99.90;;;;;;5101233;28;20653;-90
2022/02/21 05:05:00;;;;;;;80.43;41.40;;;3.60;99.90;;;;;;5098968;28;20184;-86
2022/02/21 05:07:26;;;;;;;66.40;37.50;;;3.60;99.90;;;;;;5084662;28;20345;-90
2022/02/21 05:09:51;;;;;;;78.53;40.13;;;3.60;99.90;;;;;;5077501;28;20554;-86
2022/02/21 05:12:17;;;;;;;79.30;42.73;;;3.60;99.90;;;;;;5097768;28;20208;-89
2022/02/21 05:14:43;;;;;;;78.00;41.00;;;3.50;99.90;;;;;;5130042;27;20239;-90
2022/02/21 05:17:09;;;;;;;82.87;43.80;;;3.50;99.90;;;;;;5137933;27;20196;-86
2022/02/21 05:19:34;;;;;;;94.87;44.93;;;3.50;99.90;;;;;;5138182;27;20216;-86
2022/02/21 05:22:00;;;;;;;87.83;47.00;;;3.40;99.90;;;;;;5130218;28;20291;-90
2022/02/21 05:24:26;;;;;;;101.27;48.37;;;3.40;99.90;;;;;;5095356;28;20176;-88
2022/02/21 05:26:52;;;;;;;100.07;44.67;;;3.40;99.90;;;;;;5103020;28;20205;-90
2022/02/21 05:29:18;;;;;;;114.55;52.78;;;3.40;99.90;;;;;;5101246;28;20417;-86
2022/02/21 05:31:43;;;;;;;105.27;48.00;;;3.40;99.90;;;;;;5091369;28;20554;-89
2022/02/21 05:34:09;;;;;;;91.23;42.70;;;3.40;99.90;;;;;;5091431;28;20413;-87
2022/02/21 05:36:35;;;;;;;114.80;49.37;;;3.50;99.90;;;;;;5096034;28;20244;-87
2022/02/21 05:39:00;;;;;;;51.83;24.83;;;3.50;99.90;;;;;;5096048;28;20208;-86
2022/02/21 05:41:26;;;;;;;85.53;44.83;;;3.60;99.90;;;;;;5096950;28;20176;-86
2022/02/21 05:43:52;;;;;;;87.83;43.73;;;3.60;99.90;;;;;;5077744;28;20250;-90
2022/02/21 05:46:17;;;;;;;91.83;41.73;;;3.60;99.90;;;;;;5087863;28;20425;-87
2022/02/21 05:48:43;;;;;;;78.33;34.80;;;3.60;99.90;;;;;;5091650;28;20197;-90
2022/02/21 05:51:09;;;;;;;109.07;45.10;;;3.60;99.90;;;;;;5092778;28;20169;-86
2022/02/21 05:53:36;;;;;;;109.23;49.37;;;3.60;99.90;;;;;;5093182;28;20433;-90
2022/02/21 05:56:01;;;;;;;51.72;24.95;;;3.60;99.90;;;;;;5093806;28;20671;-87
2022/02/21 05:58:27;;;;;;;66.70;30.13;;;3.60;99.90;;;;;;5093306;28;20216;-90
2022/02/21 06:00:55;;;;;;;81.70;33.20;;;3.60;99.90;;;;;;5093100;28;20177;-90
2022/02/21 06:03:21;;;;;;;108.25;40.45;;;3.60;99.90;;;;;;5095897;28;20208;-91
2022/02/21 06:05:46;;;;;;;126.60;54.30;;;3.60;99.90;;;;;;5079044;28;20194;-86
2022/02/21 06:08:13;;;;;;;123.30;58.70;;;3.60;99.90;;;;;;5080756;28;20211;-91
2022/02/21 06:10:39;;;;;;;140.77;59.38;;;3.60;99.90;;;;;;5068156;28;21657;-86
2022/02/21 06:13:05;;;;;;;119.47;46.92;;;3.60;99.90;;;;;;5071503;28;20232;-90
2022/02/21 06:15:31;;;;;;;68.17;31.10;;;3.60;99.90;;;;;;5055035;28;20189;-90
2022/02/21 06:17:58;;;;;;;126.87;48.30;;;3.50;99.90;;;;;;5055138;28;20478;-86
2022/02/21 06:20:25;;;;;;;97.22;36.55;;;3.60;99.90;;;;;;5054539;28;20406;-91
2022/02/21 06:22:51;;;;;;;125.50;48.17;;;3.60;99.90;;;;;;5058662;28;20205;-85
2022/02/21 06:25:17;;;;;;;113.60;50.10;;;3.60;99.90;;;;;;5085407;28;20180;-90
2022/02/21 06:27:42;;;;;;;134.30;55.57;;;3.60;99.90;;;;;;5066815;28;20215;-87
2022/02/21 06:30:09;;;;;;;141.47;58.23;;;3.60;99.90;;;;;;5072314;28;20699;-85
2022/02/21 06:32:35;;;;;;;79.22;37.67;;;3.70;99.90;;;;;;5050528;28;20212;-86
2022/02/21 06:35:01;;;;;;;113.38;47.10;;;3.70;99.90;;;;;;5071800;28;20683;-90
2022/02/21 06:37:27;;;;;;;128.90;54.33;;;3.70;99.90;;;;;;5077307;28;20494;-87
2022/02/21 06:39:53;;;;;;;125.43;56.60;;;3.70;99.90;;;;;;5075044;28;21187;-86
2022/02/21 06:42:18;;;;;;;87.20;37.00;;;3.80;99.90;;;;;;5072402;28;20204;-85
2022/02/21 06:44:44;;;;;;;118.10;50.27;;;3.80;99.90;;;;;;5074079;28;20260;-86
2022/02/21 06:47:10;;;;;;;116.90;55.93;;;3.90;99.90;;;;;;5075415;28;20204;-86
2022/02/21 06:49:35;;;;;;;96.40;47.50;;;3.90;99.90;;;;;;5064730;28;20763;-86
2022/02/21 06:52:02;;;;;;;100.63;48.00;;;4.00;99.90;;;;;;5060545;28;20223;-90
2022/02/21 06:54:28;;;;;;;112.10;51.22;;;4.00;99.90;;;;;;5064075;28;20649;-89
2022/02/21 06:56:54;;;;;;;112.27;50.67;;;4.00;99.90;;;;;;5065977;28;20192;-90
2022/02/21 06:59:19;;;;;;;95.20;47.33;;;4.10;99.90;;;;;;5064846;28;20619;-91
2022/02/21 07:01:45;;;;;;;120.30;55.80;;;4.20;99.90;;;;;;5067657;28;20445;-91
2022/02/21 07:04:16;;;;;;;118.73;55.90;;;4.30;99.90;;;;;;5082242;28;20275;-87
2022/02/21 07:06:42;;;;;;;91.57;43.33;;;4.40;99.90;;;;;;5052160;28;20212;-85
2022/02/21 07:09:08;;;;;;;101.50;47.50;;;4.60;99.90;;;;;;5053904;28;20225;-86
2022/02/21 07:11:33;;;;;;;99.73;51.20;;;4.70;99.90;;;;;;5057943;28;20917;-86
2022/02/21 07:13:59;;;;;;;91.57;47.80;;;4.80;99.90;;;;;;5071402;28;20245;-87
2022/02/21 07:16:26;;;;;;;94.73;46.43;;;4.90;99.90;;;;;;5080131;28;20418;-86
2022/02/21 07:18:55;;;;;;;86.00;46.30;;;5.00;99.90;;;;;;5054041;28;20417;-88
2022/02/21 07:21:20;;;;;;;74.60;39.25;;;5.10;99.90;;;;;;5065609;28;20181;-85
2022/02/21 07:23:46;;;;;;;91.63;44.83;;;5.20;99.90;;;;;;5066041;28;20775;-86
2022/02/21 07:26:12;;;;;;;87.70;44.57;;;5.20;99.90;;;;;;5054832;28;20713;-86
2022/02/21 07:28:37;;;;;;;91.50;46.57;;;5.30;99.90;;;;;;5072495;28;20880;-86
2022/02/21 07:31:06;;;;;;;79.27;42.67;;;5.40;99.90;;;;;;5053509;28;20188;-85
2022/02/21 07:33:33;;;;;;;83.65;44.80;;;5.50;99.90;;;;;;5071989;28;20204;-91
2022/02/21 07:35:59;;;;;;;83.93;45.20;;;5.60;99.90;;;;;;5070324;28;20244;-91
2022/02/21 07:38:25;;;;;;;83.00;43.03;;;5.70;99.90;;;;;;5071967;28;20277;-87
2022/02/21 07:40:51;;;;;;;79.77;40.13;;;5.80;99.90;;;;;;5070736;28;20188;-90
2022/02/21 07:43:17;;;;;;;83.15;43.35;;;5.90;99.90;;;;;;5059218;28;20208;-91
2022/02/21 07:45:43;;;;;;;85.10;46.00;;;5.90;99.90;;;;;;5059723;28;20192;-91
2022/02/21 07:48:09;;;;;;;77.40;41.87;;;5.90;99.90;;;;;;5057731;28;20462;-91
2022/02/21 07:50:35;;;;;;;77.33;36.60;;;6.00;99.90;;;;;;5073924;28;20195;-85
2022/02/21 07:53:02;;;;;;;75.75;43.63;;;6.10;99.90;;;;;;5072618;28;20568;-86
2022/02/21 07:55:28;;;;;;;81.95;42.30;;;6.10;99.90;;;;;;5046811;28;20514;-90
2022/02/21 07:57:57;;;;;;;82.30;43.60;;;6.30;99.90;;;;;;5069924;28;20216;-91
2022/02/21 08:00:23;;;;;;;75.00;41.05;;;6.40;99.90;;;;;;5052820;28;20176;-90
2022/02/21 08:02:49;;;;;;;68.07;39.10;;;6.60;99.90;;;;;;5080728;28;20204;-90
2022/02/21 08:05:16;;;;;;;70.88;40.00;;;6.70;99.90;;;;;;5054055;28;20510;-91
2022/02/21 08:07:44;;;;;;;76.55;43.20;;;6.80;99.90;;;;;;5055357;28;20235;-89
2022/02/21 08:10:11;;;;;;;67.95;39.75;;;6.90;99.90;;;;;;5075846;28;20188;-90
2022/02/21 08:12:37;;;;;;;68.30;38.45;;;7.00;99.90;;;;;;5055387;28;20886;-85
2022/02/21 08:15:04;;;;;;;70.43;42.15;;;7.10;99.90;;;;;;5049327;28;20191;-87
2022/02/21 08:17:41;;;;;;;58.38;34.05;;;7.10;99.90;;;;;;5073856;28;20200;-90
2022/02/21 08:20:07;;;;;;;54.95;27.85;;;7.40;99.90;;;;;;5082554;28;20168;-86
2022/02/21 08:22:33;;;;;;;71.88;33.10;;;7.80;99.90;;;;;;5090611;28;20203;-86
2022/02/21 08:24:59;;;;;;;52.10;31.33;;;8.40;99.90;;;;;;5100355;28;20244;-85
2022/02/21 08:27:24;;;;;;;56.57;31.03;;;9.10;99.90;;;;;;5093858;28;20312;-87
2022/02/21 08:29:50;;;;;;;66.23;39.43;;;9.70;99.90;;;;;;5094272;28;20192;-86
2022/02/21 08:32:18;;;;;;;51.70;32.30;;;10.20;99.90;;;;;;5073351;28;20208;-90
2022/02/21 08:34:44;;;;;;;51.38;27.20;;;10.70;99.90;;;;;;5091480;28;20663;-90
2022/02/21 08:37:09;;;;;;;54.93;32.07;;;11.00;99.90;;;;;;5075109;28;20281;-90
2022/02/21 08:39:35;;;;;;;52.57;30.37;;;11.30;99.90;;;;;;5094993;28;20223;-90
2022/02/21 08:42:01;;;;;;;60.33;33.20;;;11.40;99.90;;;;;;5092224;28;20185;-90
2022/02/21 08:44:27;;;;;;;54.00;32.00;;;11.20;99.90;;;;;;5077614;28;20693;-90
2022/02/21 08:46:53;;;;;;;58.83;35.47;;;11.00;99.90;;;;;;5071623;28;20262;-90
2022/02/21 08:49:20;;;;;;;49.03;25.58;;;10.80;99.90;;;;;;5073227;28;20199;-89
2022/02/21 08:51:46;;;;;;;51.63;31.95;;;10.50;99.90;;;;;;5076109;28;20275;-91
2022/02/21 08:54:12;;;;;;;58.47;33.40;;;10.20;99.90;;;;;;5095693;28;20227;-86
2022/02/21 08:56:37;;;;;;;60.97;36.03;;;9.90;99.90;;;;;;5082000;28;20492;-85
2022/02/21 08:59:04;;;;;;;77.97;45.37;;;9.60;99.90;;;;;;5091835;28;20211;-86
2022/02/21 09:01:29;;;;;;;50.83;25.77;;;9.40;99.90;;;;;;5092047;28;20203;-86
2022/02/21 09:03:55;;;;;;;53.50;34.17;;;9.20;99.90;;;;;;5077247;28;20196;-89
2022/02/21 09:06:21;;;;;;;50.73;31.13;;;9.00;99.90;;;;;;5094012;28;20179;-90
2022/02/21 09:08:47;;;;;;;54.45;30.35;;;8.90;99.90;;;;;;5092816;28;20427;-89
2022/02/21 09:11:13;;;;;;;59.67;36.20;;;8.80;99.90;;;;;;5093014;28;20185;-90
2022/02/21 09:13:38;;;;;;;57.40;31.80;;;8.70;99.90;;;;;;5032211;28;1199046;-90
2022/02/21 09:16:05;;;;;;;55.40;30.70;;;8.70;99.90;;;;;;5072622;28;20199;-90
2022/02/21 09:18:31;;;;;;;47.50;25.17;;;8.70;99.90;;;;;;5074567;28;20307;-90
2022/02/21 09:20:56;;;;;;;46.97;25.87;;;8.80;99.90;;;;;;5076348;28;20263;-86
2022/02/21 09:23:22;;;;;;;42.77;25.80;;;8.80;99.90;;;;;;5073945;28;20422;-90
2022/02/21 09:25:48;;;;;;;43.50;24.40;;;8.80;99.90;;;;;;5069648;28;20180;-89
2022/02/21 09:28:14;;;;;;;57.00;29.30;;;8.80;99.90;;;;;;5057981;28;20196;-90
2022/02/21 09:30:40;;;;;;;43.20;24.17;;;8.90;99.90;;;;;;5071638;28;20414;-85
2022/02/21 09:33:05;;;;;;;42.30;23.70;;;8.90;99.90;;;;;;5070883;28;20454;-87
2022/02/21 09:35:31;;;;;;;37.93;21.90;;;8.80;99.90;;;;;;5056572;28;20265;-86
2022/02/21 09:37:58;;;;;;;42.57;25.40;;;8.90;99.90;;;;;;5060030;28;20219;-86
2022/02/21 09:40:24;;;;;;;41.55;22.70;;;8.90;99.90;;;;;;5089056;28;20188;-86
2022/02/21 09:42:53;;;;;;;40.28;25.50;;;8.90;99.90;;;;;;5071428;28;20250;-86
2022/02/21 09:45:19;;;;;;;44.05;23.13;;;8.90;99.90;;;;;;5079593;28;20187;-90
2022/02/21 09:47:45;;;;;;;36.77;22.70;;;9.00;99.90;;;;;;5095322;28;20204;-91
2022/02/21 09:50:12;;;;;;;26.13;16.52;;;9.10;99.90;;;;;;5095936;28;20415;-91
2022/02/21 09:52:38;;;;;;;36.67;21.73;;;9.10;99.90;;;;;;5084407;28;20212;-90
2022/02/21 09:55:04;;;;;;;35.22;21.17;;;9.20;99.90;;;;;;5097944;28;20212;-90
2022/02/21 09:57:30;;;;;;;41.72;25.45;;;9.20;99.90;;;;;;5079461;28;20218;-91
2022/02/21 09:59:56;;;;;;;34.50;21.10;;;9.30;99.90;;;;;;5080600;28;20302;-91
2022/02/21 10:02:26;;;;;;;32.30;23.00;;;9.40;99.90;;;;;;5079338;28;20302;-91
2022/02/21 10:05:16;;;;;;;37.85;22.23;;;9.50;99.90;;;;;;5084244;28;20226;-91
2022/02/21 10:07:44;;;;;;;38.28;22.58;;;9.60;99.90;;;;;;5094637;28;20228;-90
2022/02/21 10:10:13;;;;;;;30.90;21.00;;;9.70;99.90;;;;;;5097317;28;20602;-91
2022/02/21 10:13:06;;;;;;;37.13;23.30;;;9.70;99.90;;;;;;5079332;28;20200;-91
2022/02/21 10:15:33;;;;;;;33.85;20.67;;;9.80;99.90;;;;;;5074804;28;20189;-91
2022/02/21 10:18:17;;;;;;;35.53;20.45;;;9.90;99.90;;;;;;5083027;28;20237;-91
2022/02/21 10:21:03;;;;;;;29.27;20.35;;;9.90;99.90;;;;;;5095472;28;20270;-91
2022/02/21 10:23:35;;;;;;;32.75;19.63;;;9.90;99.90;;;;;;5078855;28;20208;-90
2022/02/21 10:26:04;;;;;;;34.80;23.35;;;10.00;99.90;;;;;;5079159;28;20180;-91
2022/02/21 10:28:38;;;;;;;34.45;23.13;;;10.00;99.90;;;;;;5091861;28;20208;-91
2022/02/21 10:31:14;;;;;;;33.80;21.35;;;10.10;99.90;;;;;;5075940;28;20180;-87
2022/02/21 10:33:58;;;;;;;28.38;18.95;;;10.10;99.90;;;;;;5105708;28;20261;-92
2022/02/21 10:36:32;;;;;;;34.00;21.65;;;10.20;99.90;;;;;;5069769;28;20610;-91
2022/02/21 10:38:59;;;;;;;30.38;20.75;;;10.20;99.90;;;;;;5094169;28;20675;-91
2022/02/21 10:41:57;;;;;;;33.42;20.23;;;10.20;99.90;;;;;;5087488;28;20231;-91
2022/02/21 10:44:31;;;;;;;33.17;19.30;;;10.30;99.90;;;;;;5094298;28;20256;-90
2022/02/21 10:47:05;;;;;;;38.55;23.23;;;10.40;99.90;;;;;;5075283;28;20698;-90
2022/02/21 10:49:32;;;;;;;36.65;24.30;;;10.40;99.90;;;;;;5089610;28;20197;-89
2022/02/21 10:51:59;;;;;;;37.88;22.85;;;10.40;99.90;;;;;;5095440;28;20188;-90
2022/02/21 10:54:36;;;;;;;34.92;22.40;;;10.50;99.90;;;;;;5095025;28;20177;-85
2022/02/21 10:57:06;;;;;;;35.75;21.92;;;10.50;99.90;;;;;;5066368;28;20199;-85
2022/02/21 10:59:32;;;;;;;35.08;21.83;;;10.60;99.90;;;;;;5083451;28;20216;-85
2022/02/21 11:02:00;;;;;;;32.30;18.73;;;10.60;99.90;;;;;;5078465;28;20184;-86
2022/02/21 11:04:27;;;;;;;26.05;17.52;;;10.70;99.90;;;;;;5071634;28;20263;-85
2022/02/21 11:06:54;;;;;;;23.10;16.38;;;10.80;99.90;;;;;;5071618;28;20279;-86
2022/02/21 11:09:24;;;;;;;25.70;17.08;;;10.80;99.90;;;;;;5084735;28;20181;-86
2022/02/21 11:11:50;;;;;;;24.25;16.10;;;10.90;99.90;;;;;;5087521;28;20172;-86
2022/02/21 11:14:25;;;;;;;21.23;14.88;;;11.00;99.90;;;;;;5085416;28;20323;-85
2022/02/21 11:16:51;;;;;;;32.25;20.88;;;11.10;99.90;;;;;;5087273;28;20199;-86
2022/02/21 11:19:18;;;;;;;27.30;19.50;;;11.20;99.90;;;;;;5087053;28;20208;-86
2022/02/21 11:21:45;;;;;;;31.67;18.45;;;11.20;99.90;;;;;;5074419;28;20181;-90
2022/02/21 11:24:13;;;;;;;22.00;13.52;;;11.30;99.90;;;;;;5091021;28;20188;-85
2022/02/21 11:27:02;;;;;;;22.83;15.23;;;11.40;99.90;;;;;;5082425;28;20207;-86
2022/02/21 11:29:39;;;;;;;19.40;12.98;;;11.50;99.90;;;;;;5073497;28;20233;-91
2022/02/21 11:32:05;;;;;;;18.02;13.38;;;11.50;99.90;;;;;;5094836;28;20200;-90
2022/02/21 11:34:44;;;;;;;18.53;13.60;;;11.60;99.90;;;;;;5083272;28;20234;-90
2022/02/21 11:37:24;;;;;;;20.88;15.27;;;11.60;99.90;;;;;;5091247;28;20437;-90
2022/02/21 11:39:58;;;;;;;20.75;13.30;;;11.60;99.90;;;;;;5068629;28;20254;-91
2022/02/21 11:42:30;;;;;;;19.00;13.13;;;11.70;99.90;;;;;;5072583;28;20291;-90
2022/02/21 11:45:00;;;;;;;22.02;15.63;;;11.80;99.90;;;;;;5073546;28;20180;-87
2022/02/21 11:47:46;;;;;;;17.83;14.02;;;11.80;99.90;;;;;;5067570;28;20204;-87
2022/02/21 11:50:13;;;;;;;19.05;14.60;;;11.90;99.90;;;;;;5088723;28;20194;-86
2022/02/21 11:52:41;;;;;;;22.45;14.23;;;11.90;99.90;;;;;;5069368;28;20208;-86
2022/02/21 11:55:29;;;;;;;17.05;13.20;;;12.00;99.90;;;;;;5068880;28;20232;-87
2022/02/21 11:58:15;;;;;;;16.65;12.82;;;12.00;99.90;;;;;;5063477;28;20196;-87
2022/02/21 12:00:41;;;;;;;20.35;15.13;;;12.00;99.90;;;;;;5050195;28;20202;-86
2022/02/21 12:03:08;;;;;;;22.42;16.08;;;12.10;99.90;;;;;;5068162;28;20203;-86
2022/02/21 12:05:34;;;;;;;18.90;14.55;;;12.10;99.90;;;;;;5088133;28;20185;-86
2022/02/21 12:08:16;;;;;;;23.03;16.83;;;12.10;99.90;;;;;;5084757;28;20211;-91
2022/02/21 12:11:11;;;;;;;23.05;16.42;;;12.10;99.90;;;;;;5074109;28;20186;-92
2022/02/21 12:14:14;;;;;;;20.05;15.23;;;12.20;99.90;;;;;;5074706;28;20225;-90
2022/02/21 12:17:00;;;;;;;18.23;12.40;;;12.20;99.90;;;;;;5093227;28;20168;-90
2022/02/21 12:19:27;;;;;;;17.45;13.23;;;12.30;99.90;;;;;;5074256;28;20216;-86
2022/02/21 12:22:22;;;;;;;18.42;14.32;;;12.30;99.90;;;;;;5071185;28;20587;-86
2022/02/21 12:25:14;;;;;;;20.88;14.45;;;12.30;99.90;;;;;;5052526;28;20224;-91
2022/02/21 12:28:16;;;;;;;21.55;16.15;;;12.40;99.90;;;;;;5084622;28;20201;-91
2022/02/21 12:30:44;;;;;;;18.48;14.15;;;12.50;99.90;;;;;;5088707;28;20184;-86
2022/02/21 12:33:11;;;;;;;19.05;16.65;;;12.50;99.90;;;;;;5072938;28;20196;-86
2022/02/21 12:35:57;;;;;;;21.27;15.02;;;12.50;99.90;;;;;;5093326;28;20184;-90